Time;durP1;ratioP1;P1;durP2;ratioP2;P2;SDS_P1;SDS_P2;PMS_P1;PMS_P2;Temp;Humidity;BMP_temperature;BMP_pressure;BME280_temperature;BME280_humidity;BME280_pressure;Samples;Min_cycle;Max_cycle;Signal;HPM_P1;HPM_P2
2024/01/22 00:01:06;;;;;;;5.97;2.67;;;;;;;;;;4932974;28;20039;-83
2024/01/22 00:03:32;;;;;;;6.43;2.47;;;;;;;;;;4932853;29;20528;-83
2024/01/22 00:05:57;;;;;;;4.97;2.72;;;;;;;;;;4936420;29;20047;-83
2024/01/22 00:08:22;;;;;;;3.60;2.35;;;;;;;;;;4947285;28;20150;-81
2024/01/22 00:10:48;;;;;;;4.65;2.78;;;;;;;;;;4933041;29;20127;-82
2024/01/22 00:13:14;;;;;;;7.43;3.35;;;;;;;;;;4918914;29;20043;-82
2024/01/22 00:15:40;;;;;;;5.57;2.38;;;;;;;;;;4939245;29;20039;-83
2024/01/22 00:18:05;;;;;;;6.35;3.15;;;;;;;;;;4913403;29;20043;-82
2024/01/22 00:20:31;;;;;;;5.00;2.75;;;;;;;;;;4933149;28;20043;-85
2024/01/22 00:22:56;;;;;;;3.97;2.33;;;;;;;;;;4945337;28;20465;-82
2024/01/22 00:25:22;;;;;;;5.82;2.72;;;;;;;;;;4953178;28;20042;-82
2024/01/22 00:27:48;;;;;;;7.90;2.90;;;;;;;;;;4940947;29;20252;-83
2024/01/22 00:30:13;;;;;;;5.25;2.70;;;;;;;;;;4955230;28;20062;-85
2024/01/22 00:32:39;;;;;;;5.10;2.72;;;;;;;;;;4930291;29;20065;-84
2024/01/22 00:35:05;;;;;;;5.35;2.25;;;;;;;;;;4917236;29;20031;-82
2024/01/22 00:37:30;;;;;;;7.15;2.65;;;;;;;;;;4944751;28;20030;-84
2024/01/22 00:39:57;;;;;;;6.32;3.03;;;;;;;;;;4950590;28;20038;-83
2024/01/22 00:42:23;;;;;;;4.82;2.38;;;;;;;;;;4932422;28;20051;-82
2024/01/22 00:44:48;;;;;;;4.90;2.38;;;;;;;;;;4942422;28;20047;-82
2024/01/22 00:47:13;;;;;;;3.85;2.08;;;;;;;;;;4934744;28;20452;-82
2024/01/22 00:49:39;;;;;;;5.43;2.50;;;;;;;;;;4934405;28;20027;-85
2024/01/22 00:52:05;;;;;;;4.25;2.05;;;;;;;;;;4936417;28;20105;-83
2024/01/22 00:54:30;;;;;;;4.07;2.55;;;;;;;;;;4918671;29;20398;-82
2024/01/22 00:56:56;;;;;;;7.45;2.55;;;;;;;;;;4920825;29;20095;-83
2024/01/22 00:59:22;;;;;;;4.60;2.38;;;;;;;;;;4928631;28;20043;-85
2024/01/22 01:01:48;;;;;;;3.13;1.80;;;;;;;;;;4939881;28;20034;-83
2024/01/22 01:04:13;;;;;;;5.65;2.78;;;;;;;;;;4928566;29;20053;-83
2024/01/22 01:06:38;;;;;;;4.55;2.63;;;;;;;;;;4924369;29;20044;-82
2024/01/22 01:09:04;;;;;;;5.22;2.08;;;;;;;;;;4915042;29;20083;-86
2024/01/22 01:11:29;;;;;;;3.00;1.63;;;;;;;;;;4916452;29;20423;-83
2024/01/22 01:13:55;;;;;;;3.53;1.92;;;;;;;;;;4932176;29;20027;-82
2024/01/22 01:16:21;;;;;;;3.22;1.98;;;;;;;;;;4935093;29;20035;-82
2024/01/22 01:18:46;;;;;;;3.08;1.92;;;;;;;;;;4960771;28;20057;-83
2024/01/22 01:21:11;;;;;;;5.80;2.67;;;;;;;;;;4944399;28;20083;-83
2024/01/22 01:23:37;;;;;;;4.45;2.40;;;;;;;;;;4962024;28;20126;-82
2024/01/22 01:26:02;;;;;;;2.70;1.48;;;;;;;;;;4971177;28;20015;-82
2024/01/22 01:28:28;;;;;;;2.60;1.50;;;;;;;;;;4958794;28;20019;-82
2024/01/22 01:30:53;;;;;;;2.88;1.92;;;;;;;;;;4976387;28;20027;-83
2024/01/22 01:33:18;;;;;;;3.35;1.85;;;;;;;;;;4977574;28;20046;-82
2024/01/22 01:35:45;;;;;;;4.47;1.52;;;;;;;;;;4954447;28;20058;-84
2024/01/22 01:38:11;;;;;;;6.47;2.10;;;;;;;;;;4951916;29;20027;-83
2024/01/22 01:40:40;;;;;;;3.90;1.90;;;;;;;;;;4935247;29;20046;-84
2024/01/22 01:43:05;;;;;;;2.83;1.73;;;;;;;;;;4958107;28;20043;-84
2024/01/22 01:45:30;;;;;;;3.08;1.92;;;;;;;;;;4947813;29;20077;-83
2024/01/22 01:47:56;;;;;;;4.53;1.73;;;;;;;;;;4966881;28;20046;-83
2024/01/22 01:50:22;;;;;;;4.80;2.30;;;;;;;;;;4938651;28;20031;-85
2024/01/22 01:52:49;;;;;;;2.53;1.92;;;;;;;;;;4961223;28;20035;-83
2024/01/22 01:55:15;;;;;;;3.53;1.85;;;;;;;;;;4957902;28;20051;-83
2024/01/22 01:57:41;;;;;;;3.88;2.03;;;;;;;;;;4942577;28;20095;-83
2024/01/22 02:00:07;;;;;;;3.15;1.90;;;;;;;;;;4954620;28;20088;-83
2024/01/22 02:02:33;;;;;;;2.20;1.70;;;;;;;;;;4966327;28;20110;-84
2024/01/22 02:05:01;;;;;;;3.10;1.80;;;;;;;;;;4969135;28;20056;-81
2024/01/22 02:07:27;;;;;;;3.38;1.75;;;;;;;;;;4961256;28;20019;-83
2024/01/22 02:09:53;;;;;;;1.95;1.38;;;;;;;;;;4941828;28;20075;-81
2024/01/22 02:12:19;;;;;;;2.50;1.73;;;;;;;;;;4946785;28;20145;-84
2024/01/22 02:14:48;;;;;;;4.85;2.00;;;;;;;;;;4947738;28;20040;-84
2024/01/22 02:17:14;;;;;;;4.13;2.00;;;;;;;;;;4923163;29;20098;-84
2024/01/22 02:19:39;;;;;;;2.95;1.55;;;;;;;;;;4942322;28;20060;-82
2024/01/22 02:22:06;;;;;;;3.05;1.90;;;;;;;;;;4957258;28;20046;-83
2024/01/22 02:24:31;;;;;;;3.47;1.83;;;;;;;;;;4937335;28;20056;-81
2024/01/22 02:26:57;;;;;;;3.15;1.70;;;;;;;;;;4948500;28;20063;-83
2024/01/22 02:29:22;;;;;;;2.40;1.75;;;;;;;;;;4926044;29;20691;-83
2024/01/22 02:31:49;;;;;;;2.67;1.83;;;;;;;;;;4965621;28;20054;-84
2024/01/22 02:34:15;;;;;;;3.28;2.10;;;;;;;;;;4957912;28;20058;-83
2024/01/22 02:36:41;;;;;;;3.03;1.60;;;;;;;;;;4948025;28;20073;-83
2024/01/22 02:39:07;;;;;;;3.10;1.65;;;;;;;;;;4949975;28;20545;-83
2024/01/22 02:41:32;;;;;;;5.50;1.83;;;;;;;;;;4953500;28;20046;-83
2024/01/22 02:43:58;;;;;;;4.63;1.52;;;;;;;;;;4971369;28;20049;-83
2024/01/22 02:46:26;;;;;;;3.97;2.00;;;;;;;;;;4970705;28;20046;-86
2024/01/22 02:48:51;;;;;;;3.35;1.67;;;;;;;;;;4970416;28;20042;-83
2024/01/22 02:51:17;;;;;;;2.42;1.88;;;;;;;;;;4956397;28;20412;-82
2024/01/22 02:53:42;;;;;;;2.53;1.50;;;;;;;;;;4951122;28;20066;-83
2024/01/22 02:56:07;;;;;;;2.40;1.55;;;;;;;;;;4947572;29;20028;-83
2024/01/22 02:58:33;;;;;;;3.63;1.48;;;;;;;;;;4949694;29;20023;-82
2024/01/22 03:00:58;;;;;;;2.70;1.50;;;;;;;;;;4949959;29;20050;-83
2024/01/22 03:03:24;;;;;;;3.25;1.70;;;;;;;;;;4961339;28;20051;-84
2024/01/22 03:05:49;;;;;;;1.30;1.20;;;;;;;;;;4961778;28;20039;-81
2024/01/22 03:08:15;;;;;;;3.15;1.70;;;;;;;;;;4961372;28;20033;-82
2024/01/22 03:10:40;;;;;;;3.22;1.55;;;;;;;;;;4946228;29;20599;-83
2024/01/22 03:13:06;;;;;;;2.47;1.60;;;;;;;;;;4951038;28;20041;-84
2024/01/22 03:15:31;;;;;;;3.88;1.88;;;;;;;;;;4949270;29;20575;-83
2024/01/22 03:17:56;;;;;;;4.63;1.73;;;;;;;;;;4948028;29;20043;-81
2024/01/22 03:20:22;;;;;;;3.60;1.38;;;;;;;;;;4942174;28;20039;-83
2024/01/22 03:22:47;;;;;;;2.22;1.42;;;;;;;;;;4938530;29;20110;-82
2024/01/22 03:25:16;;;;;;;4.35;1.52;;;;;;;;;;4946338;29;20043;-83
2024/01/22 03:27:41;;;;;;;3.30;1.40;;;;;;;;;;4932744;28;20043;-84
2024/01/22 03:30:07;;;;;;;3.03;1.35;;;;;;;;;;4933257;29;20579;-82
2024/01/22 03:32:33;;;;;;;1.23;1.13;;;;;;;;;;4938523;28;20122;-83
2024/01/22 03:34:58;;;;;;;2.03;1.40;;;;;;;;;;4942049;29;20618;-82
2024/01/22 03:37:24;;;;;;;1.30;1.08;;;;;;;;;;4937659;28;20043;-83
2024/01/22 03:39:50;;;;;;;2.97;1.35;;;;;;;;;;4948458;29;20039;-82
2024/01/22 03:42:15;;;;;;;4.18;1.83;;;;;;;;;;4963916;28;20062;-82
2024/01/22 03:44:41;;;;;;;2.90;1.10;;;;;;;;;;4948838;29;20081;-84
2024/01/22 03:47:06;;;;;;;5.90;0.98;;;;;;;;;;4945603;28;20413;-84
2024/01/22 03:49:32;;;;;;;3.60;1.20;;;;;;;;;;4939411;28;20038;-84
2024/01/22 03:51:57;;;;;;;3.00;1.20;;;;;;;;;;4947330;29;20513;-82
2024/01/22 03:54:23;;;;;;;2.25;1.30;;;;;;;;;;4948021;28;20493;-83
2024/01/22 03:56:48;;;;;;;2.20;1.20;;;;;;;;;;4947665;28;20121;-84
2024/01/22 03:59:13;;;;;;;2.70;1.20;;;;;;;;;;4937287;28;20038;-84
2024/01/22 04:01:39;;;;;;;5.72;1.55;;;;;;;;;;4969782;28;20113;-83
2024/01/22 04:04:04;;;;;;;3.90;1.30;;;;;;;;;;4968129;28;20530;-82
2024/01/22 04:06:30;;;;;;;3.65;1.42;;;;;;;;;;4954959;28;20039;-83
2024/01/22 04:08:55;;;;;;;5.80;1.65;;;;;;;;;;4948006;29;20525;-85
2024/01/22 04:11:21;;;;;;;2.33;1.48;;;;;;;;;;4949097;28;20043;-82
2024/01/22 04:13:46;;;;;;;3.67;1.30;;;;;;;;;;4949702;28;20031;-82
2024/01/22 04:16:13;;;;;;;2.70;1.35;;;;;;;;;;4949285;28;20398;-83
2024/01/22 04:18:42;;;;;;;2.22;1.15;;;;;;;;;;4944194;28;20042;-82
2024/01/22 04:21:09;;;;;;;2.85;1.50;;;;;;;;;;4946477;28;20031;-82
2024/01/22 04:23:34;;;;;;;2.20;1.20;;;;;;;;;;4948037;28;20039;-83
2024/01/22 04:26:04;;;;;;;2.17;1.30;;;;;;;;;;4947096;28;20162;-81
2024/01/22 04:28:30;;;;;;;1.80;1.40;;;;;;;;;;4939574;28;20504;-82
2024/01/22 04:30:55;;;;;;;3.00;1.42;;;;;;;;;;4937815;28;20044;-82
2024/01/22 04:33:21;;;;;;;3.35;1.30;;;;;;;;;;4940614;28;20540;-85
2024/01/22 04:35:49;;;;;;;1.88;1.25;;;;;;;;;;4960376;28;20078;-82
2024/01/22 04:38:15;;;;;;;2.50;1.15;;;;;;;;;;4946220;28;20118;-83
2024/01/22 04:40:40;;;;;;;1.52;1.10;;;;;;;;;;4948118;29;20143;-83
2024/01/22 04:43:06;;;;;;;2.25;1.13;;;;;;;;;;4948425;28;20043;-82
2024/01/22 04:45:31;;;;;;;4.53;1.40;;;;;;;;;;4942472;28;20043;-83
2024/01/22 04:47:56;;;;;;;2.80;1.27;;;;;;;;;;4946131;28;20552;-83
2024/01/22 04:50:22;;;;;;;3.33;1.38;;;;;;;;;;4948039;28;20526;-83
2024/01/22 04:52:47;;;;;;;4.95;1.50;;;;;;;;;;4947040;29;20054;-83
2024/01/22 04:55:13;;;;;;;2.45;1.40;;;;;;;;;;4946509;28;20122;-83
2024/01/22 04:57:38;;;;;;;2.08;1.20;;;;;;;;;;4941700;28;20081;-84
2024/01/22 05:00:07;;;;;;;1.80;1.23;;;;;;;;;;4942729;28;20050;-83
2024/01/22 05:02:32;;;;;;;2.13;1.50;;;;;;;;;;4947313;29;20769;-83
2024/01/22 05:05:01;;;;;;;2.75;1.63;;;;;;;;;;4939784;29;20031;-82
2024/01/22 05:07:26;;;;;;;1.83;1.38;;;;;;;;;;4948204;28;20053;-82
2024/01/22 05:10:01;;;;;;;1.40;1.10;;;;;;;;;;4943785;28;20046;-82
2024/01/22 05:12:26;;;;;;;2.08;1.30;;;;;;;;;;4962282;28;20146;-83
2024/01/22 05:14:52;;;;;;;2.70;1.48;;;;;;;;;;4946169;29;20696;-82
2024/01/22 05:17:18;;;;;;;2.45;1.48;;;;;;;;;;4948314;28;20031;-83
2024/01/22 05:19:43;;;;;;;3.80;1.40;;;;;;;;;;4947786;28;20548;-84
2024/01/22 05:22:09;;;;;;;2.30;1.27;;;;;;;;;;4957262;28;20554;-83
2024/01/22 05:24:34;;;;;;;2.90;1.20;;;;;;;;;;4940226;28;20043;-84
2024/01/22 05:27:02;;;;;;;3.45;1.20;;;;;;;;;;4941896;28;20470;-82
2024/01/22 05:29:28;;;;;;;2.70;1.05;;;;;;;;;;4941764;28;20127;-81
2024/01/22 05:31:53;;;;;;;2.47;1.50;;;;;;;;;;4934542;29;20138;-83
2024/01/22 05:34:18;;;;;;;2.35;2.03;;;;;;;;;;4942797;28;20056;-82
2024/01/22 05:36:44;;;;;;;1.98;1.00;;;;;;;;;;4946859;28;20055;-82
2024/01/22 05:39:09;;;;;;;3.25;1.50;;;;;;;;;;4939860;28;20043;-85
2024/01/22 05:41:35;;;;;;;8.32;1.27;;;;;;;;;;4947296;28;20075;-82
2024/01/22 05:44:00;;;;;;;6.93;1.50;;;;;;;;;;4938838;28;20063;-84
2024/01/22 05:46:27;;;;;;;1.92;0.90;;;;;;;;;;4945368;29;20125;-82
2024/01/22 05:48:53;;;;;;;4.00;1.00;;;;;;;;;;4959414;28;20535;-82
2024/01/22 05:51:19;;;;;;;2.20;1.20;;;;;;;;;;4956763;28;20078;-82
2024/01/22 05:53:45;;;;;;;2.33;1.00;;;;;;;;;;4945172;28;20773;-83
2024/01/22 05:56:25;;;;;;;2.05;1.05;;;;;;;;;;4964005;28;20039;-84
2024/01/22 05:58:51;;;;;;;3.22;0.93;;;;;;;;;;4961403;28;20026;-82
2024/01/22 06:01:26;;;;;;;3.65;1.70;;;;;;;;;;4965282;28;20043;-83
2024/01/22 06:03:52;;;;;;;3.50;1.30;;;;;;;;;;4959395;28;20047;-82
2024/01/22 06:06:18;;;;;;;2.20;1.15;;;;;;;;;;4949803;28;20043;-83
2024/01/22 06:08:45;;;;;;;5.63;1.40;;;;;;;;;;4947103;28;20509;-82
2024/01/22 06:11:12;;;;;;;3.85;1.40;;;;;;;;;;4947251;28;20070;-84
2024/01/22 06:13:44;;;;;;;3.83;1.55;;;;;;;;;;4933422;28;20215;-83
2024/01/22 06:16:12;;;;;;;6.72;2.33;;;;;;;;;;4944397;28;20053;-81
2024/01/22 06:18:39;;;;;;;2.95;1.65;;;;;;;;;;4939870;28;20854;-81
2024/01/22 06:21:05;;;;;;;3.42;1.63;;;;;;;;;;4937472;28;20158;-82
2024/01/22 06:23:31;;;;;;;5.38;1.77;;;;;;;;;;4946824;28;20122;-83
2024/01/22 06:25:57;;;;;;;2.67;1.83;;;;;;;;;;4935079;28;20035;-84
2024/01/22 06:28:24;;;;;;;5.18;2.20;;;;;;;;;;4944492;28;20539;-82
2024/01/22 06:30:49;;;;;;;2.22;1.40;;;;;;;;;;4936809;29;20522;-82
2024/01/22 06:33:14;;;;;;;3.35;1.73;;;;;;;;;;4942003;28;20126;-82
2024/01/22 06:35:40;;;;;;;1.77;1.58;;;;;;;;;;4940120;28;20058;-83
2024/01/22 06:38:05;;;;;;;3.53;1.67;;;;;;;;;;4972316;28;20575;-82
2024/01/22 06:40:31;;;;;;;3.78;1.67;;;;;;;;;;4944094;28;20070;-81
2024/01/22 06:42:56;;;;;;;4.70;1.90;;;;;;;;;;4943178;28;20062;-81
2024/01/22 06:45:22;;;;;;;6.85;2.33;;;;;;;;;;4946298;28;20043;-82
2024/01/22 06:47:47;;;;;;;3.10;1.70;;;;;;;;;;4944630;28;20043;-81
2024/01/22 06:50:12;;;;;;;4.97;1.90;;;;;;;;;;4946558;28;20039;-80
2024/01/22 06:52:38;;;;;;;4.88;1.60;;;;;;;;;;4945957;29;20027;-80
2024/01/22 06:55:05;;;;;;;2.90;1.30;;;;;;;;;;4942501;28;20078;-82
2024/01/22 06:57:30;;;;;;;3.75;2.17;;;;;;;;;;4951726;28;20047;-81
2024/01/22 06:59:56;;;;;;;5.68;1.60;;;;;;;;;;4946510;28;20035;-81
2024/01/22 07:02:26;;;;;;;3.05;1.40;;;;;;;;;;4945035;28;20042;-81
2024/01/22 07:04:52;;;;;;;3.80;1.52;;;;;;;;;;4947964;28;20050;-81
2024/01/22 07:07:18;;;;;;;2.50;1.30;;;;;;;;;;4945902;29;20082;-81
2024/01/22 07:09:43;;;;;;;2.88;1.67;;;;;;;;;;4948558;29;20509;-81
2024/01/22 07:12:08;;;;;;;2.72;1.30;;;;;;;;;;4947578;28;20047;-81
2024/01/22 07:14:34;;;;;;;2.78;1.50;;;;;;;;;;4945359;28;20055;-82
2024/01/22 07:17:00;;;;;;;2.60;1.30;;;;;;;;;;4960853;28;20050;-81
2024/01/22 07:19:25;;;;;;;4.55;1.15;;;;;;;;;;4948587;28;20109;-82
2024/01/22 07:21:51;;;;;;;3.45;1.27;;;;;;;;;;4946600;29;20051;-82
2024/01/22 07:24:16;;;;;;;3.50;1.20;;;;;;;;;;4936537;28;20130;-83
2024/01/22 07:26:42;;;;;;;5.60;1.77;;;;;;;;;;4946125;28;20086;-80
2024/01/22 07:29:08;;;;;;;4.55;1.23;;;;;;;;;;4940231;28;20155;-81
2024/01/22 07:31:34;;;;;;;3.28;1.20;;;;;;;;;;4943780;29;20117;-82
2024/01/22 07:34:00;;;;;;;2.95;1.20;;;;;;;;;;4937683;29;20047;-81
2024/01/22 07:36:26;;;;;;;6.93;1.60;;;;;;;;;;4943052;28;20031;-83
2024/01/22 07:38:54;;;;;;;6.50;1.70;;;;;;;;;;4942271;28;20050;-81
2024/01/22 07:41:20;;;;;;;5.60;1.88;;;;;;;;;;4941680;28;20078;-83
2024/01/22 07:43:45;;;;;;;2.15;0.95;;;;;;;;;;4942810;28;20043;-82
2024/01/22 07:46:11;;;;;;;4.30;1.50;;;;;;;;;;4937390;28;20050;-83
2024/01/22 07:48:36;;;;;;;4.55;1.58;;;;;;;;;;4937624;28;20107;-83
2024/01/22 07:51:02;;;;;;;5.97;1.40;;;;;;;;;;4945043;28;20130;-81
2024/01/22 07:53:27;;;;;;;3.63;1.35;;;;;;;;;;4937822;28;20421;-83
2024/01/22 07:55:52;;;;;;;5.07;1.50;;;;;;;;;;4939418;29;20046;-82
2024/01/22 07:58:19;;;;;;;4.40;1.20;;;;;;;;;;4936029;29;20124;-81
2024/01/22 08:00:44;;;;;;;3.47;1.25;;;;;;;;;;4935144;28;20048;-82
2024/01/22 08:03:10;;;;;;;4.85;1.33;;;;;;;;;;4936789;28;20055;-81
2024/01/22 08:05:35;;;;;;;5.07;1.25;;;;;;;;;;4947195;28;20034;-82
2024/01/22 08:08:01;;;;;;;3.70;1.52;;;;;;;;;;4975910;28;20027;-82
2024/01/22 08:10:26;;;;;;;3.83;1.08;;;;;;;;;;4944034;29;20036;-82
2024/01/22 08:12:52;;;;;;;5.70;1.20;;;;;;;;;;4938777;28;20077;-84
2024/01/22 08:15:17;;;;;;;4.80;1.50;;;;;;;;;;4944127;28;20046;-84
2024/01/22 08:17:44;;;;;;;5.65;1.65;;;;;;;;;;4943806;28;20043;-86
2024/01/22 08:20:10;;;;;;;3.90;1.52;;;;;;;;;;4946640;28;20058;-82
2024/01/22 08:22:36;;;;;;;4.80;1.70;;;;;;;;;;4945151;29;20069;-83
2024/01/22 08:25:01;;;;;;;2.53;1.40;;;;;;;;;;4948797;28;20425;-83
2024/01/22 08:27:26;;;;;;;6.18;1.63;;;;;;;;;;4943066;28;20035;-82
2024/01/22 08:29:51;;;;;;;6.85;1.50;;;;;;;;;;4940955;28;20501;-82
2024/01/22 08:32:17;;;;;;;5.22;1.75;;;;;;;;;;4939970;28;20078;-82
2024/01/22 08:34:42;;;;;;;3.22;1.10;;;;;;;;;;4947393;28;20049;-84
2024/01/22 08:37:08;;;;;;;4.07;1.10;;;;;;;;;;4940445;28;20047;-82
2024/01/22 08:39:33;;;;;;;5.38;1.55;;;;;;;;;;4961101;28;20035;-82
2024/01/22 08:41:58;;;;;;;5.10;1.20;;;;;;;;;;4966075;28;20049;-84
2024/01/22 08:44:24;;;;;;;6.97;1.35;;;;;;;;;;4965633;28;20070;-83
2024/01/22 08:46:50;;;;;;;6.20;1.58;;;;;;;;;;4959188;28;20084;-82
2024/01/22 08:49:16;;;;;;;5.53;1.40;;;;;;;;;;4967246;28;20038;-83
2024/01/22 08:51:42;;;;;;;4.35;1.35;;;;;;;;;;4956878;28;20051;-82
2024/01/22 08:54:08;;;;;;;2.40;1.23;;;;;;;;;;4958966;28;20074;-85
2024/01/22 08:56:34;;;;;;;3.20;1.33;;;;;;;;;;4966622;28;20121;-84
2024/01/22 08:58:59;;;;;;;4.85;1.10;;;;;;;;;;4963940;28;20185;-83
2024/01/22 09:01:25;;;;;;;8.93;1.52;;;;;;;;;;4957127;28;20038;-83
2024/01/22 09:03:50;;;;;;;3.83;1.00;;;;;;;;;;4961931;28;20045;-83
2024/01/22 09:06:16;;;;;;;2.03;0.90;;;;;;;;;;4951118;28;20047;-82
2024/01/22 09:08:42;;;;;;;6.60;1.25;;;;;;;;;;4960600;28;20068;-86
2024/01/22 09:11:08;;;;;;;7.97;1.63;;;;;;;;;;4960190;28;20031;-83
2024/01/22 09:13:33;;;;;;;4.65;1.40;;;;;;;;;;4957308;28;20031;-80
2024/01/22 09:15:59;;;;;;;6.03;1.50;;;;;;;;;;4963420;28;20528;-84
2024/01/22 09:18:25;;;;;;;8.25;1.65;;;;;;;;;;4960945;28;20142;-83
2024/01/22 09:20:52;;;;;;;5.15;1.50;;;;;;;;;;4961006;28;20093;-82
2024/01/22 09:23:18;;;;;;;4.82;1.48;;;;;;;;;;4961369;28;20283;-82
2024/01/22 09:25:44;;;;;;;9.52;1.60;;;;;;;;;;4956263;28;20031;-82
2024/01/22 09:28:10;;;;;;;7.63;1.13;;;;;;;;;;4936262;28;20521;-84
2024/01/22 09:30:36;;;;;;;8.57;1.17;;;;;;;;;;4944804;28;20055;-82
2024/01/22 09:33:03;;;;;;;5.68;1.25;;;;;;;;;;4923642;29;20043;-82
2024/01/22 09:35:28;;;;;;;7.25;1.30;;;;;;;;;;4905517;29;20056;-82
2024/01/22 09:37:54;;;;;;;8.07;1.38;;;;;;;;;;4903901;29;20935;-82
2024/01/22 09:40:24;;;;;;;4.53;1.17;;;;;;;;;;4905119;29;20040;-82
2024/01/22 09:42:50;;;;;;;3.92;1.60;;;;;;;;;;4921927;29;20055;-85
2024/01/22 09:45:16;;;;;;;7.38;1.50;;;;;;;;;;4927490;29;20138;-82
2024/01/22 09:47:42;;;;;;;7.40;1.50;;;;;;;;;;4921337;29;20122;-83
2024/01/22 09:50:08;;;;;;;6.45;1.52;;;;;;;;;;4901831;29;20024;-85
2024/01/22 09:52:34;;;;;;;2.80;1.20;;;;;;;;;;4939929;29;20108;-85
2024/01/22 09:55:00;;;;;;;6.38;1.88;;;;;;;;;;4936986;29;20035;-84
2024/01/22 09:57:27;;;;;;;5.85;1.60;;;;;;;;;;4946375;28;20059;-84
2024/01/22 09:59:53;;;;;;;7.93;1.55;;;;;;;;;;4944746;28;20043;-83
2024/01/22 10:02:19;;;;;;;6.60;1.70;;;;;;;;;;4938629;28;20426;-85
2024/01/22 10:04:45;;;;;;;6.70;1.98;;;;;;;;;;4936054;29;20031;-83
2024/01/22 10:07:13;;;;;;;7.22;1.48;;;;;;;;;;4938706;28;20054;-83
2024/01/22 10:09:39;;;;;;;12.50;1.80;;;;;;;;;;4937531;29;20099;-82
2024/01/22 10:12:05;;;;;;;5.82;1.98;;;;;;;;;;4942649;29;20490;-82
2024/01/22 10:14:31;;;;;;;6.20;1.73;;;;;;;;;;4956119;28;20059;-84
2024/01/22 10:17:13;;;;;;;11.15;3.00;;;;;;;;;;4944992;29;20043;-84
2024/01/22 10:19:38;;;;;;;11.90;3.33;;;;;;;;;;4940098;28;21182;-83
2024/01/22 10:22:04;;;;;;;10.15;2.25;;;;;;;;;;4940926;29;20584;-82
2024/01/22 10:24:30;;;;;;;13.52;2.25;;;;;;;;;;4943214;29;20043;-83
2024/01/22 10:27:11;;;;;;;13.05;2.63;;;;;;;;;;4944664;28;20046;-83
2024/01/22 10:29:37;;;;;;;13.10;2.38;;;;;;;;;;4956326;28;20067;-89
2024/01/22 10:32:02;;;;;;;19.67;3.72;;;;;;;;;;4954210;28;20047;-83
2024/01/22 10:34:30;;;;;;;17.90;3.35;;;;;;;;;;4961746;28;20023;-84
2024/01/22 10:37:10;;;;;;;14.82;2.85;;;;;;;;;;4943212;28;20413;-88
2024/01/22 10:39:37;;;;;;;18.45;3.33;;;;;;;;;;4961520;28;20818;-85
2024/01/22 10:42:06;;;;;;;19.90;3.22;;;;;;;;;;4962354;28;20066;-84
2024/01/22 10:44:32;;;;;;;18.10;3.22;;;;;;;;;;4967192;28;20568;-84
2024/01/22 10:47:01;;;;;;;21.92;4.05;;;;;;;;;;4951570;28;20031;-84
2024/01/22 10:49:28;;;;;;;29.83;4.20;;;;;;;;;;4961780;28;20126;-86
2024/01/22 10:51:55;;;;;;;21.50;4.13;;;;;;;;;;4983691;28;20035;-83
2024/01/22 10:54:20;;;;;;;17.58;2.55;;;;;;;;;;4957134;28;20112;-85
2024/01/22 10:56:51;;;;;;;20.42;3.40;;;;;;;;;;4957889;28;20050;-84
2024/01/22 10:59:20;;;;;;;20.63;3.38;;;;;;;;;;4969300;28;20065;-84
2024/01/22 11:01:46;;;;;;;21.27;3.65;;;;;;;;;;4965169;28;20030;-85
2024/01/22 11:04:13;;;;;;;18.67;3.78;;;;;;;;;;4981915;28;20038;-84
2024/01/22 11:06:41;;;;;;;27.58;3.95;;;;;;;;;;4980568;28;20045;-87
2024/01/22 11:09:09;;;;;;;19.13;3.60;;;;;;;;;;4978883;28;20039;-84
2024/01/22 11:11:38;;;;;;;19.23;3.50;;;;;;;;;;4958006;28;20905;-86
2024/01/22 11:14:06;;;;;;;12.00;3.13;;;;;;;;;;4971344;28;20096;-85
2024/01/22 11:16:32;;;;;;;20.35;4.35;;;;;;;;;;4965213;28;20527;-85
2024/01/22 11:19:04;;;;;;;21.02;3.42;;;;;;;;;;4982161;28;20039;-86
2024/01/22 11:21:41;;;;;;;30.60;5.25;;;;;;;;;;4961084;28;20035;-86
2024/01/22 11:24:14;;;;;;;22.90;3.85;;;;;;;;;;4972151;28;20102;-86
2024/01/22 11:27:02;;;;;;;17.25;3.40;;;;;;;;;;4983657;28;20050;-86
2024/01/22 11:29:29;;;;;;;22.42;3.08;;;;;;;;;;4957444;28;20027;-84
2024/01/22 11:31:56;;;;;;;20.50;2.83;;;;;;;;;;4973428;28;20118;-84
2024/01/22 11:34:40;;;;;;;21.52;3.20;;;;;;;;;;4935212;28;20141;-83
2024/01/22 11:37:05;;;;;;;;;;;;;;;;;;4960185;28;20035;-83
2024/01/22 11:39:46;;;;;;;20.35;4.10;;;;;;;;;;4943068;28;19917;-83
2024/01/22 11:42:23;;;;;;;25.42;4.05;;;;;;;;;;4969018;28;20054;-84
2024/01/22 11:44:50;;;;;;;16.40;3.63;;;;;;;;;;4951226;28;20175;-84
2024/01/22 11:47:17;;;;;;;19.73;4.97;;;;;;;;;;4954994;28;20019;-85
2024/01/22 11:49:43;;;;;;;19.77;3.08;;;;;;;;;;4952795;28;20095;-87
2024/01/22 11:52:22;;;;;;;17.38;2.95;;;;;;;;;;4946533;28;20024;-87
2024/01/22 11:54:59;;;;;;;16.80;2.95;;;;;;;;;;4942616;28;20035;-82
2024/01/22 11:57:26;;;;;;;17.88;3.00;;;;;;;;;;4928752;29;20076;-85
2024/01/22 12:00:10;;;;;;;16.05;2.60;;;;;;;;;;4944407;28;20427;-84
2024/01/22 12:02:36;;;;;;;21.30;3.75;;;;;;;;;;4919757;29;20049;-83
2024/01/22 12:05:03;;;;;;;18.73;4.07;;;;;;;;;;4944188;29;20114;-85
2024/01/22 12:07:37;;;;;;;14.88;2.72;;;;;;;;;;4948017;29;20895;-83
2024/01/22 12:10:04;;;;;;;;;;;;;;;;;;4938597;29;20118;-88
2024/01/22 12:12:30;;;;;;;17.33;3.05;;;;;;;;;;4942641;28;19944;-84
2024/01/22 12:15:01;;;;;;;21.33;3.25;;;;;;;;;;4922098;29;20957;-85
2024/01/22 12:17:27;;;;;;;20.50;3.38;;;;;;;;;;4936591;29;20103;-87
2024/01/22 12:19:56;;;;;;;23.02;3.13;;;;;;;;;;4944822;29;20121;-84
2024/01/22 12:22:24;;;;;;;20.17;3.67;;;;;;;;;;4927355;29;20047;-82
2024/01/22 12:25:10;;;;;;;16.45;2.50;;;;;;;;;;4941730;29;20039;-83
2024/01/22 12:27:37;;;;;;;19.35;3.10;;;;;;;;;;4928656;29;20051;-86
2024/01/22 12:30:14;;;;;;;15.32;2.90;;;;;;;;;;4924599;28;20047;-84
2024/01/22 12:32:49;;;;;;;18.67;3.90;;;;;;;;;;4938008;29;20031;-85
2024/01/22 12:35:15;;;;;;;19.90;2.95;;;;;;;;;;4921393;28;20035;-87
2024/01/22 12:37:40;;;;;;;19.23;3.63;;;;;;;;;;4942758;29;20038;-82
2024/01/22 12:40:06;;;;;;;14.20;2.40;;;;;;;;;;4919688;29;20040;-81
2024/01/22 12:42:31;;;;;;;15.77;2.95;;;;;;;;;;4926615;29;20048;-83
2024/01/22 12:44:58;;;;;;;22.30;2.85;;;;;;;;;;4916330;29;20595;-86
2024/01/22 12:47:24;;;;;;;21.75;2.72;;;;;;;;;;4915158;29;20070;-87
2024/01/22 12:49:49;;;;;;;24.02;4.25;;;;;;;;;;4906076;29;20044;-84
2024/01/22 12:52:15;;;;;;;20.63;3.72;;;;;;;;;;4904872;29;20051;-82
2024/01/22 12:54:43;;;;;;;24.05;3.50;;;;;;;;;;4921811;29;20039;-88
2024/01/22 12:57:08;;;;;;;18.75;3.00;;;;;;;;;;4902711;29;20059;-85
2024/01/22 13:01:59;;;;;;;17.60;2.78;;;;;;;;;;4888523;29;20062;-82
2024/01/22 13:04:24;;;;;;;19.95;3.28;;;;;;;;;;4928708;29;20058;-85
2024/01/22 13:06:50;;;;;;;18.33;2.78;;;;;;;;;;4935924;28;20122;-82
2024/01/22 13:09:15;;;;;;;23.50;3.63;;;;;;;;;;4934740;29;20070;-83
2024/01/22 13:11:42;;;;;;;27.77;4.13;;;;;;;;;;4941179;28;20130;-87
2024/01/22 13:14:08;;;;;;;19.33;3.63;;;;;;;;;;4944822;28;20042;-86
2024/01/22 13:16:33;;;;;;;25.05;3.88;;;;;;;;;;4937692;29;20035;-84
2024/01/22 13:18:58;;;;;;;23.15;2.95;;;;;;;;;;4939112;29;20830;-86
2024/01/22 13:21:24;;;;;;;24.60;3.35;;;;;;;;;;4941480;28;20043;-89
2024/01/22 13:23:49;;;;;;;26.42;4.05;;;;;;;;;;4938200;29;20058;-85
2024/01/22 13:26:14;;;;;;;27.38;3.28;;;;;;;;;;4942845;28;20437;-86
2024/01/22 13:28:40;;;;;;;21.25;4.05;;;;;;;;;;4936345;29;20031;-89
2024/01/22 13:31:05;;;;;;;17.13;2.63;;;;;;;;;;4928582;29;20043;-85
2024/01/22 13:33:31;;;;;;;18.05;3.22;;;;;;;;;;4920341;29;20513;-86
2024/01/22 13:35:57;;;;;;;18.77;2.90;;;;;;;;;;4915794;29;20131;-86
2024/01/22 13:38:22;;;;;;;17.98;2.65;;;;;;;;;;4923450;29;20043;-84
2024/01/22 13:40:48;;;;;;;29.02;3.28;;;;;;;;;;4918082;29;20035;-84
2024/01/22 13:43:13;;;;;;;25.98;3.50;;;;;;;;;;4903962;29;20043;-84
2024/01/22 13:45:39;;;;;;;24.92;3.67;;;;;;;;;;4918837;28;20417;-86
2024/01/22 13:48:04;;;;;;;30.05;3.90;;;;;;;;;;4918211;29;20118;-84
2024/01/22 13:50:30;;;;;;;25.65;3.28;;;;;;;;;;4910681;29;20055;-84
2024/01/22 13:52:55;;;;;;;30.10;3.60;;;;;;;;;;4910255;29;21504;-82
2024/01/22 13:55:21;;;;;;;30.48;4.07;;;;;;;;;;4925809;29;20044;-83
2024/01/22 13:57:46;;;;;;;25.45;3.60;;;;;;;;;;4907084;29;20070;-84
2024/01/22 14:00:14;;;;;;;24.88;3.13;;;;;;;;;;4909500;29;20509;-83
2024/01/22 14:02:39;;;;;;;25.10;4.47;;;;;;;;;;4927576;29;20070;-87
2024/01/22 14:05:05;;;;;;;23.02;3.25;;;;;;;;;;4906222;29;20040;-85
2024/01/22 14:07:31;;;;;;;14.70;2.83;;;;;;;;;;4907541;29;20032;-85
2024/01/22 14:09:56;;;;;;;26.38;3.10;;;;;;;;;;4903345;29;20091;-85
2024/01/22 14:12:22;;;;;;;15.05;2.20;;;;;;;;;;4907944;29;20071;-85
2024/01/22 14:14:49;;;;;;;8.70;1.70;;;;;;;;;;4910770;29;20480;-86
2024/01/22 14:17:16;;;;;;;10.80;2.75;;;;;;;;;;4920903;29;20055;-83
2024/01/22 14:19:44;;;;;;;8.15;1.58;;;;;;;;;;4933230;29;20678;-85
2024/01/22 14:22:09;;;;;;;12.38;2.60;;;;;;;;;;4912356;29;20106;-88
2024/01/22 14:24:35;;;;;;;11.48;2.58;;;;;;;;;;4912032;29;20743;-83
2024/01/22 14:27:00;;;;;;;13.43;3.17;;;;;;;;;;4922983;29;20040;-85
2024/01/22 14:29:25;;;;;;;14.23;2.88;;;;;;;;;;4907680;29;20067;-88
2024/01/22 14:31:52;;;;;;;21.85;3.33;;;;;;;;;;4941774;29;20051;-85
2024/01/22 14:34:17;;;;;;;21.20;2.90;;;;;;;;;;4942193;29;20035;-84
2024/01/22 14:36:42;;;;;;;21.63;3.00;;;;;;;;;;4918779;29;20103;-88
2024/01/22 14:39:10;;;;;;;14.07;3.08;;;;;;;;;;4940557;29;20043;-86